GMMX

Menara Airport

Marrakech, Morocco
METAR GMMX 190500Z 09007KT CAVOK 21/16 Q1017 NOSIG
Observed Flight Rules
Sep-19 @ 05:00 UTC (14 minutes ago) Visual Flight Rules
Wind Visibility Clouds
90° at 7 knots 10,000+ meters
  • Clear skies
Temperatures Readings
Current 21°C / 70°F
Dewpoint 16°C / 61°F
Humidity 73%
Altimeter 30.03" Hg
Pressure 1017 hPa
Elevation 466
METAR GMMX 190500Z 09007KT CAVOK 21/16 Q1017 NOSIG
Observed Flight Rules
Sep-19 @ 05:00 UTC
(14 minutes ago)
VFR
Wind Visibility
90° at 7 knots 10,000+ meters
Clouds
  • Clear skies
Temperature Dewpoint
21°C / 70°F 16°C / 61°F
Humidity Altimeter Pressure
73% 30.03" Hg 1017 hPa